Time;durP1;ratioP1;P1;durP2;ratioP2;P2;SDS_P1;SDS_P2;PMS_P1;PMS_P2;Temp;Humidity;BMP_temperature;BMP_pressure;BME280_temperature;BME280_humidity;BME280_pressure;Samples;Min_cycle;Max_cycle;Signal;HPM_P1;HPM_P2
2020/12/26 00:00:16;;;;;;;47.67;23.13;;;-1.00;95.80;;;;;;5020868;28;20116;-84
2020/12/26 00:02:42;;;;;;;54.70;25.85;;;-1.00;95.80;;;;;;5040386;28;20014;-83
2020/12/26 00:05:08;;;;;;;50.75;25.73;;;-1.00;95.80;;;;;;5039532;28;20056;-86
2020/12/26 00:07:34;;;;;;;42.22;23.98;;;-1.00;95.80;;;;;;5040939;28;20021;-84
2020/12/26 00:10:00;;;;;;;45.58;25.98;;;-0.90;95.80;;;;;;5044321;28;20406;-83
2020/12/26 00:12:26;;;;;;;43.75;24.52;;;-0.90;95.70;;;;;;5041619;28;20562;-85
2020/12/26 00:14:52;;;;;;;42.38;24.00;;;-0.90;95.70;;;;;;5045022;28;20041;-84
2020/12/26 00:17:18;;;;;;;49.80;24.73;;;-0.90;95.60;;;;;;5034186;28;20025;-84
2020/12/26 00:19:43;;;;;;;43.78;25.02;;;-0.90;95.50;;;;;;5048011;28;20038;-85
2020/12/26 00:22:09;;;;;;;44.45;22.48;;;-0.90;95.50;;;;;;5039510;28;20010;-84
2020/12/26 00:24:36;;;;;;;43.83;23.27;;;-1.00;95.50;;;;;;5038053;28;20051;-84
2020/12/26 00:27:02;;;;;;;48.28;23.92;;;-1.00;95.60;;;;;;5034148;28;20454;-83
2020/12/26 00:29:28;;;;;;;42.22;25.20;;;-1.00;95.70;;;;;;5033947;28;20030;-83
2020/12/26 00:31:54;;;;;;;46.42;24.92;;;-0.90;95.70;;;;;;5035586;28;20044;-84
2020/12/26 00:34:21;;;;;;;45.30;27.90;;;-1.00;95.70;;;;;;5035563;28;20018;-85
2020/12/26 00:36:47;;;;;;;52.13;25.55;;;-1.00;95.90;;;;;;5035106;28;20075;-82
2020/12/26 00:39:13;;;;;;;42.55;24.27;;;-0.90;96.00;;;;;;5034233;28;20055;-81
2020/12/26 00:41:38;;;;;;;44.80;25.15;;;-0.80;95.90;;;;;;5034156;28;20024;-83
2020/12/26 00:44:04;;;;;;;45.05;25.70;;;-0.80;95.80;;;;;;5033995;28;20028;-82
2020/12/26 00:46:30;;;;;;;48.28;25.35;;;-0.80;95.80;;;;;;5016485;28;20025;-83
2020/12/26 00:48:56;;;;;;;43.25;23.58;;;-0.80;95.70;;;;;;5016309;28;20474;-82
2020/12/26 00:51:22;;;;;;;47.17;24.13;;;-0.70;95.60;;;;;;5015662;28;20545;-83
2020/12/26 00:53:47;;;;;;;49.35;23.20;;;-0.80;95.60;;;;;;5015377;28;20057;-82
2020/12/26 00:56:13;;;;;;;47.85;24.77;;;-0.70;95.70;;;;;;5033193;28;20025;-82
2020/12/26 00:58:39;;;;;;;39.08;23.33;;;-0.70;95.60;;;;;;5033608;28;20040;-83
2020/12/26 01:01:05;;;;;;;52.20;23.48;;;-0.70;95.50;;;;;;5033408;28;20099;-82
2020/12/26 01:03:31;;;;;;;47.17;23.65;;;-0.80;95.50;;;;;;5019553;28;20518;-82
2020/12/26 01:05:57;;;;;;;45.42;24.98;;;-0.80;95.60;;;;;;5032987;28;20107;-84
2020/12/26 01:08:23;;;;;;;51.20;24.30;;;-0.70;95.70;;;;;;5052647;28;20025;-84
2020/12/26 01:10:48;;;;;;;41.58;21.90;;;-0.70;95.60;;;;;;5043314;28;20063;-84
2020/12/26 01:13:17;;;;;;;46.65;24.65;;;-0.70;95.50;;;;;;5035641;28;20091;-84
2020/12/26 01:15:42;;;;;;;45.10;23.25;;;-0.70;95.50;;;;;;5053663;28;20025;-82
2020/12/26 01:18:08;;;;;;;52.88;24.50;;;-0.70;95.50;;;;;;5062347;28;20017;-80
2020/12/26 01:20:34;;;;;;;48.53;23.92;;;-0.70;95.60;;;;;;5052975;28;20482;-83
2020/12/26 01:23:00;;;;;;;39.95;22.83;;;-0.60;95.50;;;;;;5049731;28;20021;-84
2020/12/26 01:25:26;;;;;;;39.50;22.63;;;-0.60;95.50;;;;;;5053655;28;20033;-86
2020/12/26 01:27:51;;;;;;;42.65;22.35;;;-0.60;95.40;;;;;;5054796;28;20029;-84
2020/12/26 01:30:17;;;;;;;38.65;24.42;;;-0.50;95.30;;;;;;5049933;28;20171;-83
2020/12/26 01:32:43;;;;;;;47.60;24.92;;;-0.60;95.10;;;;;;5046828;28;20474;-85
2020/12/26 01:35:09;;;;;;;44.58;23.73;;;-0.60;95.30;;;;;;5049657;28;20104;-83
2020/12/26 01:37:35;;;;;;;44.63;23.77;;;-0.60;95.40;;;;;;5036209;28;20025;-83
2020/12/26 01:40:01;;;;;;;42.28;21.77;;;-0.60;95.40;;;;;;5052280;28;20036;-85
2020/12/26 01:42:26;;;;;;;38.10;22.73;;;-0.60;95.40;;;;;;5050660;28;20026;-84
2020/12/26 01:44:52;;;;;;;37.90;21.00;;;-0.60;95.40;;;;;;5033500;28;20509;-84
2020/12/26 01:47:18;;;;;;;31.13;19.58;;;-0.60;95.40;;;;;;5053042;28;20457;-85
2020/12/26 01:49:45;;;;;;;34.95;20.00;;;-0.60;95.30;;;;;;5053480;28;20114;-84
2020/12/26 01:52:14;;;;;;;33.47;20.00;;;-0.60;95.30;;;;;;5031715;28;20100;-85
2020/12/26 01:54:40;;;;;;;39.30;21.95;;;-0.60;95.30;;;;;;5025484;28;20164;-84
2020/12/26 01:57:08;;;;;;;39.55;21.13;;;-0.60;95.40;;;;;;5052867;28;20061;-82
2020/12/26 01:59:34;;;;;;;33.35;21.15;;;-0.60;95.40;;;;;;5053027;28;20041;-84
2020/12/26 02:02:06;;;;;;;33.03;20.50;;;-0.50;95.50;;;;;;5035115;28;20021;-82
2020/12/26 02:04:32;;;;;;;34.90;21.13;;;-0.50;95.50;;;;;;5052406;28;20036;-83
2020/12/26 02:07:02;;;;;;;33.20;18.27;;;-0.50;95.40;;;;;;5035286;28;20033;-82
2020/12/26 02:09:28;;;;;;;35.22;19.42;;;-0.50;95.40;;;;;;5053525;28;20192;-84
2020/12/26 02:11:53;;;;;;;36.60;19.70;;;-0.50;95.20;;;;;;5052819;28;20100;-83
2020/12/26 02:14:19;;;;;;;34.08;19.10;;;-0.50;95.30;;;;;;5053202;28;20447;-82
2020/12/26 02:16:51;;;;;;;35.92;19.23;;;-0.50;95.30;;;;;;5044583;28;20021;-84
2020/12/26 02:19:19;;;;;;;30.50;19.25;;;-0.50;95.50;;;;;;5048145;28;20087;-82
2020/12/26 02:21:45;;;;;;;28.88;17.40;;;-0.50;95.40;;;;;;5052773;28;20060;-84
2020/12/26 02:24:11;;;;;;;35.70;19.45;;;-0.50;95.30;;;;;;5034795;28;20454;-82
2020/12/26 02:26:37;;;;;;;42.58;20.52;;;-0.50;95.30;;;;;;5052600;28;20018;-83
2020/12/26 02:29:05;;;;;;;37.30;18.23;;;-0.40;95.40;;;;;;5035480;28;20033;-82
2020/12/26 02:31:31;;;;;;;39.83;24.50;;;-0.40;95.50;;;;;;5056627;28;20132;-84
2020/12/26 02:33:57;;;;;;;34.85;19.98;;;-0.50;95.50;;;;;;5060122;28;20029;-84
2020/12/26 02:36:23;;;;;;;30.42;18.92;;;-0.40;95.50;;;;;;5030297;28;20032;-83
2020/12/26 02:38:49;;;;;;;34.60;19.20;;;-0.40;95.50;;;;;;5056693;28;20382;-82
2020/12/26 02:41:15;;;;;;;37.63;20.92;;;-0.50;95.40;;;;;;5056320;28;20308;-81
2020/12/26 02:43:41;;;;;;;34.60;18.55;;;-0.50;95.50;;;;;;5056123;28;20073;-83
2020/12/26 02:46:07;;;;;;;29.73;17.40;;;-0.50;95.50;;;;;;5056751;28;20144;-84
2020/12/26 02:48:33;;;;;;;32.38;18.02;;;-0.40;95.70;;;;;;5056071;28;20021;-82
2020/12/26 02:50:58;;;;;;;35.97;21.30;;;-0.50;95.60;;;;;;5056404;28;20020;-85
2020/12/26 02:53:25;;;;;;;40.90;20.33;;;-0.50;95.70;;;;;;5060667;28;20039;-83
2020/12/26 02:55:51;;;;;;;38.83;19.77;;;-0.50;95.70;;;;;;5056832;28;20025;-85
2020/12/26 02:58:17;;;;;;;39.50;20.30;;;-0.40;95.80;;;;;;5056584;28;20025;-83
2020/12/26 03:00:43;;;;;;;40.13;20.95;;;-0.40;95.70;;;;;;5055923;28;20363;-83
2020/12/26 03:03:09;;;;;;;38.30;21.10;;;-0.40;95.70;;;;;;5056158;28;20028;-83
2020/12/26 03:05:35;;;;;;;31.17;19.13;;;-0.40;95.70;;;;;;5056447;28;20049;-85
2020/12/26 03:08:01;;;;;;;30.70;19.20;;;-0.40;95.70;;;;;;5047095;28;20110;-84
2020/12/26 03:10:27;;;;;;;36.20;19.80;;;-0.30;95.70;;;;;;5050212;28;20052;-84
2020/12/26 03:12:53;;;;;;;35.15;18.13;;;-0.30;95.60;;;;;;5047193;28;20466;-84
2020/12/26 03:15:19;;;;;;;32.97;18.50;;;-0.30;95.60;;;;;;5045180;28;20553;-83
2020/12/26 03:17:45;;;;;;;34.33;18.98;;;-0.30;95.50;;;;;;5041106;28;20021;-82
2020/12/26 03:20:10;;;;;;;37.70;20.63;;;-0.30;95.50;;;;;;5066718;28;20059;-82
2020/12/26 03:22:36;;;;;;;33.47;19.55;;;-0.30;95.60;;;;;;5070752;28;20079;-84
2020/12/26 03:25:02;;;;;;;34.92;21.58;;;-0.30;95.50;;;;;;5056785;28;20295;-83
2020/12/26 03:27:28;;;;;;;37.45;22.65;;;-0.30;95.40;;;;;;5056157;28;20032;-82
2020/12/26 03:29:54;;;;;;;32.65;18.45;;;-0.30;95.50;;;;;;5033536;28;20048;-83
2020/12/26 03:32:21;;;;;;;33.95;18.35;;;-0.30;95.50;;;;;;5047776;28;20021;-83
2020/12/26 03:34:46;;;;;;;42.97;18.83;;;-0.30;95.60;;;;;;5050775;28;20024;-82
2020/12/26 03:37:12;;;;;;;33.30;17.13;;;-0.30;95.50;;;;;;5057148;28;20025;-84
2020/12/26 03:39:38;;;;;;;36.13;20.13;;;-0.30;95.60;;;;;;5064286;28;20037;-82
2020/12/26 03:42:08;;;;;;;36.35;18.13;;;-0.30;95.60;;;;;;5067181;28;20023;-81
2020/12/26 03:44:34;;;;;;;34.40;16.20;;;-0.20;95.60;;;;;;5060043;28;20017;-83
2020/12/26 03:47:01;;;;;;;36.45;20.65;;;-0.20;95.50;;;;;;5029396;28;20044;-84
2020/12/26 03:49:27;;;;;;;38.30;18.80;;;-0.20;95.50;;;;;;5056958;28;20021;-82
2020/12/26 03:51:53;;;;;;;29.50;18.42;;;-0.20;95.60;;;;;;5056649;28;20036;-82
2020/12/26 03:54:20;;;;;;;39.53;20.20;;;-0.20;95.60;;;;;;5057939;28;20017;-83
2020/12/26 03:56:49;;;;;;;35.15;18.50;;;-0.20;95.50;;;;;;5056960;28;20390;-82
2020/12/26 03:59:15;;;;;;;34.20;19.15;;;-0.20;95.60;;;;;;5055816;28;20041;-83
2020/12/26 04:01:41;;;;;;;25.52;15.75;;;-0.10;95.60;;;;;;5055294;28;20092;-83
2020/12/26 04:04:07;;;;;;;30.55;18.27;;;-0.10;95.60;;;;;;5055558;28;20172;-85
2020/12/26 04:06:33;;;;;;;34.67;19.30;;;-0.10;95.70;;;;;;5055340;28;20111;-85
2020/12/26 04:08:59;;;;;;;32.38;19.42;;;-0.10;95.80;;;;;;5036851;28;20048;-83
2020/12/26 04:11:25;;;;;;;42.88;19.27;;;-0.10;95.80;;;;;;5054849;28;20013;-84
2020/12/26 04:13:52;;;;;;;35.80;17.48;;;-0.10;95.90;;;;;;5055349;28;20108;-84
2020/12/26 04:16:18;;;;;;;31.08;18.33;;;-0.10;95.90;;;;;;5056361;28;20040;-85
2020/12/26 04:18:44;;;;;;;28.27;18.13;;;-0.10;96.00;;;;;;5055820;28;20113;-84
2020/12/26 04:21:10;;;;;;;33.88;17.50;;;-0.10;96.10;;;;;;5055320;28;20052;-86
2020/12/26 04:23:36;;;;;;;34.75;18.17;;;-0.10;96.10;;;;;;5037897;28;20045;-86
2020/12/26 04:26:02;;;;;;;30.00;15.65;;;0.00;96.20;;;;;;5055606;28;20032;-86
2020/12/26 04:28:28;;;;;;;29.87;14.50;;;0.00;96.50;;;;;;5055373;28;20025;-86
2020/12/26 04:30:54;;;;;;;30.25;17.00;;;0.00;96.20;;;;;;5055320;28;20080;-85
2020/12/26 04:33:20;;;;;;;27.73;14.98;;;0.00;96.30;;;;;;5051351;28;20012;-85
2020/12/26 04:35:47;;;;;;;27.58;15.70;;;0.10;96.30;;;;;;5054916;28;20036;-85
2020/12/26 04:38:12;;;;;;;31.20;16.58;;;0.10;96.20;;;;;;5055067;28;20075;-84
2020/12/26 04:40:42;;;;;;;29.00;14.23;;;0.10;96.20;;;;;;5056974;28;20072;-85
2020/12/26 04:43:09;;;;;;;28.15;14.45;;;0.10;96.20;;;;;;5037246;28;20359;-85
2020/12/26 04:45:35;;;;;;;31.13;16.23;;;0.10;96.20;;;;;;5055117;28;20018;-83
2020/12/26 04:48:06;;;;;;;27.38;15.60;;;0.20;96.20;;;;;;5037266;28;20035;-85
2020/12/26 04:50:34;;;;;;;19.48;12.57;;;0.20;96.10;;;;;;5054211;28;20017;-84
2020/12/26 04:53:00;;;;;;;;;;;0.20;96.10;;;;;;5054058;28;20032;-86
2020/12/26 04:55:31;;;;;;;26.15;14.27;;;0.20;96.10;;;;;;5054397;28;20370;-85
2020/12/26 04:58:10;;;;;;;21.27;12.00;;;0.20;96.10;;;;;;5054494;28;20028;-85
2020/12/26 05:00:37;;;;;;;23.20;12.60;;;0.30;96.20;;;;;;5053708;28;20025;-81
2020/12/26 05:03:09;;;;;;;17.50;10.88;;;0.30;96.20;;;;;;5053848;28;20043;-84
2020/12/26 05:05:37;;;;;;;18.63;11.88;;;0.30;96.10;;;;;;5048345;28;20422;-83
2020/12/26 05:08:04;;;;;;;21.15;12.40;;;0.30;96.10;;;;;;5045061;28;20496;-82
2020/12/26 05:10:31;;;;;;;20.77;12.45;;;0.40;96.00;;;;;;5032374;28;20112;-84
2020/12/26 05:12:57;;;;;;;19.90;11.20;;;0.40;95.90;;;;;;5065428;28;20017;-82
2020/12/26 05:15:24;;;;;;;19.95;10.65;;;0.40;95.80;;;;;;5023450;28;20277;-83
2020/12/26 05:17:50;;;;;;;15.15;10.45;;;0.40;95.80;;;;;;5061242;28;20013;-83
2020/12/26 05:20:17;;;;;;;18.60;10.95;;;0.50;95.70;;;;;;5030662;28;20419;-82
2020/12/26 05:22:43;;;;;;;16.75;11.30;;;0.50;95.70;;;;;;5046540;28;20037;-82
2020/12/26 05:25:09;;;;;;;18.92;10.80;;;0.50;95.60;;;;;;5032297;28;20021;-82
2020/12/26 05:27:36;;;;;;;22.75;11.75;;;0.50;95.50;;;;;;5027830;28;20033;-82
2020/12/26 05:30:06;;;;;;;16.65;10.10;;;0.50;95.50;;;;;;5037395;28;20025;-81
2020/12/26 05:32:33;;;;;;;16.38;9.07;;;0.60;95.50;;;;;;5016688;28;20021;-82
2020/12/26 05:35:08;;;;;;;14.52;8.48;;;0.60;95.50;;;;;;5053171;28;20401;-81
2020/12/26 05:37:35;;;;;;;12.18;8.10;;;0.60;95.40;;;;;;5039559;28;20339;-84
2020/12/26 05:40:03;;;;;;;16.02;10.63;;;0.60;95.30;;;;;;5054167;28;20053;-83
2020/12/26 05:42:29;;;;;;;14.80;8.30;;;0.60;95.20;;;;;;5046833;28;20025;-84
2020/12/26 05:45:24;;;;;;;15.13;7.47;;;0.60;95.10;;;;;;5037818;28;20143;-83
2020/12/26 05:47:50;;;;;;;9.43;7.22;;;0.60;95.10;;;;;;5030255;28;20040;-83
2020/12/26 05:50:25;;;;;;;15.50;8.93;;;0.60;95.10;;;;;;5042253;28;20021;-83
2020/12/26 05:52:54;;;;;;;16.08;7.93;;;0.60;95.00;;;;;;5043580;28;20025;-83
2020/12/26 05:55:21;;;;;;;14.63;7.60;;;0.60;95.00;;;;;;5044791;28;20040;-84
2020/12/26 05:57:54;;;;;;;11.93;6.83;;;0.70;94.90;;;;;;5054137;28;20115;-83
2020/12/26 06:00:33;;;;;;;15.13;7.65;;;0.70;94.80;;;;;;5053185;28;20031;-83
2020/12/26 06:02:59;;;;;;;14.82;7.82;;;0.70;94.80;;;;;;5056176;28;20025;-85
2020/12/26 06:05:28;;;;;;;13.63;7.68;;;0.70;94.80;;;;;;5046235;28;20056;-85
2020/12/26 06:07:53;;;;;;;12.85;6.63;;;0.70;94.70;;;;;;5060057;28;20028;-84
2020/12/26 06:10:19;;;;;;;14.07;6.65;;;0.70;94.70;;;;;;5054186;28;20032;-84
2020/12/26 06:12:46;;;;;;;15.50;7.38;;;0.70;94.80;;;;;;5057525;28;20159;-85
2020/12/26 06:15:19;;;;;;;12.00;7.32;;;0.70;94.90;;;;;;5053192;28;20035;-84
2020/12/26 06:17:51;;;;;;;9.05;6.53;;;0.70;94.90;;;;;;5050742;28;20093;-85
2020/12/26 06:20:17;;;;;;;13.52;6.70;;;0.80;94.80;;;;;;5036177;28;20087;-84
2020/12/26 06:22:51;;;;;;;15.48;6.63;;;0.80;94.70;;;;;;5057124;28;20101;-84
2020/12/26 06:25:21;;;;;;;9.75;6.00;;;0.80;94.60;;;;;;5048369;28;20013;-85
2020/12/26 06:27:53;;;;;;;6.00;4.38;;;0.80;94.50;;;;;;5035573;28;20054;-86
2020/12/26 06:30:20;;;;;;;6.30;5.10;;;0.80;94.30;;;;;;5050641;28;20097;-84
2020/12/26 06:32:46;;;;;;;9.20;6.10;;;0.80;94.10;;;;;;5034062;28;20021;-84
2020/12/26 06:35:16;;;;;;;11.02;6.88;;;0.80;94.00;;;;;;5039237;28;20405;-83
2020/12/26 06:37:43;;;;;;;12.32;6.35;;;0.80;93.90;;;;;;5067387;28;20036;-83
2020/12/26 06:40:30;;;;;;;11.32;6.25;;;0.80;93.80;;;;;;5039263;28;20486;-83
2020/12/26 06:42:56;;;;;;;11.90;5.38;;;0.80;93.80;;;;;;5056217;28;20068;-83
2020/12/26 06:45:48;;;;;;;7.90;4.35;;;0.70;93.70;;;;;;5057865;28;20021;-85
2020/12/26 06:48:34;;;;;;;8.57;4.85;;;0.70;93.60;;;;;;5054647;28;20037;-82
2020/12/26 06:51:23;;;;;;;5.60;3.13;;;0.70;93.50;;;;;;5039253;28;20057;-83
2020/12/26 06:53:49;;;;;;;5.90;3.10;;;0.70;93.60;;;;;;5041502;28;20021;-84
2020/12/26 06:56:36;;;;;;;6.47;3.92;;;0.70;93.50;;;;;;5056602;28;20378;-82
2020/12/26 06:59:05;;;;;;;7.47;4.25;;;0.70;93.30;;;;;;5018729;28;20038;-84
2020/12/26 07:01:31;;;;;;;4.63;3.95;;;0.70;93.10;;;;;;5050058;28;20021;-84
2020/12/26 07:04:19;;;;;;;4.97;3.20;;;0.70;92.70;;;;;;5057176;28;20016;-84
2020/12/26 07:06:55;;;;;;;4.35;3.33;;;0.70;92.60;;;;;;5056715;28;20037;-84
2020/12/26 07:09:36;;;;;;;6.95;3.28;;;0.70;92.40;;;;;;5056477;28;20021;-84
2020/12/26 07:12:03;;;;;;;5.22;3.08;;;0.70;92.10;;;;;;5054172;28;20025;-84
2020/12/26 07:14:42;;;;;;;5.75;3.90;;;0.70;92.20;;;;;;5044612;28;20370;-84
2020/12/26 07:17:14;;;;;;;6.22;3.70;;;0.70;91.90;;;;;;5056879;28;20065;-84
2020/12/26 07:19:41;;;;;;;5.70;3.53;;;0.70;91.90;;;;;;5056557;28;20083;-85
2020/12/26 07:22:23;;;;;;;4.70;2.75;;;0.70;92.00;;;;;;5057497;28;20048;-84
2020/12/26 07:24:52;;;;;;;7.35;3.92;;;0.70;91.70;;;;;;5062863;28;20024;-83
2020/12/26 07:27:24;;;;;;;6.35;3.30;;;0.70;91.60;;;;;;5076532;28;20020;-86
2020/12/26 07:30:13;;;;;;;6.68;3.17;;;0.70;91.60;;;;;;5053320;28;20151;-84
2020/12/26 07:32:50;;;;;;;6.13;3.67;;;0.70;91.80;;;;;;5033353;28;20445;-84
2020/12/26 07:35:22;;;;;;;6.88;3.42;;;0.70;91.80;;;;;;5039488;28;20021;-84
2020/12/26 07:38:12;;;;;;;7.07;3.22;;;0.70;91.40;;;;;;5063574;28;20056;-83
2020/12/26 07:40:43;;;;;;;4.38;2.33;;;0.70;91.30;;;;;;5056543;28;20040;-84
2020/12/26 07:43:14;;;;;;;6.88;3.63;;;0.70;91.40;;;;;;5056100;28;20025;-84
2020/12/26 07:45:42;;;;;;;7.72;3.75;;;0.70;91.40;;;;;;5047436;28;20021;-84
2020/12/26 07:48:09;;;;;;;5.93;3.70;;;0.70;91.30;;;;;;5020186;28;20026;-84
2020/12/26 07:50:38;;;;;;;4.68;2.72;;;0.80;91.10;;;;;;5049871;28;20030;-84
2020/12/26 07:53:09;;;;;;;8.35;3.75;;;0.80;90.80;;;;;;5053050;28;20017;-84
2020/12/26 07:55:36;;;;;;;9.63;3.55;;;0.80;90.60;;;;;;5050420;28;20021;-84
2020/12/26 07:58:13;;;;;;;8.90;3.33;;;0.80;90.50;;;;;;5049158;28;20025;-86
2020/12/26 08:00:41;;;;;;;6.60;3.83;;;0.90;90.40;;;;;;5029013;28;20478;-85
2020/12/26 08:03:12;;;;;;;7.20;2.97;;;0.90;90.60;;;;;;5057579;28;20108;-85
2020/12/26 08:05:39;;;;;;;5.47;2.85;;;1.00;90.70;;;;;;5037849;28;20052;-83
2020/12/26 08:08:16;;;;;;;7.97;3.20;;;0.90;90.90;;;;;;5055364;28;20062;-84
2020/12/26 08:10:43;;;;;;;6.70;3.33;;;1.00;90.70;;;;;;5055330;28;20025;-87
2020/12/26 08:13:15;;;;;;;7.93;3.53;;;1.00;90.80;;;;;;5055479;28;20048;-85
2020/12/26 08:15:41;;;;;;;5.10;3.65;;;1.10;90.50;;;;;;5054922;28;20025;-83
2020/12/26 08:18:08;;;;;;;10.57;5.35;;;1.20;90.30;;;;;;5055147;28;20414;-86
2020/12/26 08:20:35;;;;;;;8.75;3.83;;;1.30;89.60;;;;;;5056590;28;20033;-87
2020/12/26 08:23:01;;;;;;;12.50;3.70;;;1.40;89.10;;;;;;5057982;28;20053;-87
2020/12/26 08:25:28;;;;;;;8.55;4.70;;;1.50;89.20;;;;;;5064508;28;20032;-86
2020/12/26 08:27:54;;;;;;;4.60;3.40;;;1.50;88.90;;;;;;5053415;28;20026;-87
2020/12/26 08:30:32;;;;;;;11.18;5.88;;;1.60;88.90;;;;;;5056914;28;20258;-87
2020/12/26 08:33:09;;;;;;;;;;;1.60;88.40;;;;;;5056786;28;20032;-85
2020/12/26 08:35:42;;;;;;;11.70;5.78;;;1.70;89.10;;;;;;5054731;28;20457;-87
2020/12/26 08:38:35;;;;;;;5.32;2.83;;;1.60;88.20;;;;;;5054697;28;20024;-83
2020/12/26 08:41:04;;;;;;;6.25;5.40;;;1.60;88.10;;;;;;5054950;28;20115;-85
2020/12/26 08:43:30;;;;;;;8.75;4.03;;;1.50;88.50;;;;;;5054995;28;20024;-82
2020/12/26 08:45:56;;;;;;;7.40;3.35;;;1.50;88.30;;;;;;5056181;28;20033;-83
2020/12/26 08:48:23;;;;;;;5.95;2.97;;;1.40;88.30;;;;;;5042621;28;20028;-83
2020/12/26 08:50:57;;;;;;;5.10;2.92;;;1.40;88.30;;;;;;5036548;28;20025;-82
2020/12/26 08:53:24;;;;;;;8.20;4.25;;;1.00;89.90;;;;;;5053561;28;20092;-82
2020/12/26 08:55:54;;;;;;;9.75;3.30;;;0.90;90.30;;;;;;5054350;28;20060;-84
2020/12/26 08:58:26;;;;;;;6.55;3.10;;;0.80;90.50;;;;;;5039407;28;20033;-86
2020/12/26 09:00:54;;;;;;;6.55;3.28;;;0.90;90.60;;;;;;5026866;28;20038;-84
2020/12/26 09:03:21;;;;;;;7.18;3.38;;;0.80;90.40;;;;;;5029138;28;20017;-85
2020/12/26 09:05:47;;;;;;;9.38;3.70;;;0.90;90.40;;;;;;5054467;28;20103;-86
2020/12/26 09:08:13;;;;;;;6.03;3.00;;;0.90;90.20;;;;;;5054974;28;20029;-88
2020/12/26 09:10:40;;;;;;;6.55;3.08;;;0.90;89.80;;;;;;5047109;28;20021;-84
2020/12/26 09:13:08;;;;;;;5.95;3.42;;;0.90;89.90;;;;;;5051776;28;20021;-84
2020/12/26 09:15:55;;;;;;;5.05;3.90;;;1.00;90.00;;;;;;5039058;28;20025;-83
2020/12/26 09:18:25;;;;;;;7.03;4.15;;;1.00;90.00;;;;;;5025546;28;20104;-85
2020/12/26 09:20:52;;;;;;;10.15;3.60;;;1.00;89.80;;;;;;5048052;28;20039;-85
2020/12/26 09:23:19;;;;;;;7.43;3.40;;;1.00;90.00;;;;;;5025643;28;20107;-87
2020/12/26 09:25:46;;;;;;;6.90;3.93;;;0.90;90.10;;;;;;5040265;28;20558;-86
2020/12/26 09:28:11;;;;;;;8.18;3.85;;;1.00;90.10;;;;;;5048336;28;20029;-86
2020/12/26 09:30:37;;;;;;;7.57;3.72;;;1.00;90.10;;;;;;5030401;28;20525;-87
2020/12/26 09:33:03;;;;;;;8.77;3.95;;;1.00;90.20;;;;;;5044895;28;20022;-91
2020/12/26 09:35:30;;;;;;;6.30;3.10;;;1.00;90.30;;;;;;5024877;28;20033;-87
2020/12/26 09:37:59;;;;;;;7.38;3.60;;;0.90;90.30;;;;;;5049575;28;20013;-90
2020/12/26 09:40:29;;;;;;;7.35;3.95;;;0.90;90.50;;;;;;5046165;28;20037;-85
2020/12/26 09:42:57;;;;;;;8.98;5.22;;;0.80;90.50;;;;;;5026568;28;20032;-91
2020/12/26 09:45:23;;;;;;;8.30;4.53;;;0.80;90.70;;;;;;4987247;28;20085;-82
2020/12/26 09:47:49;;;;;;;4.55;3.92;;;0.80;90.80;;;;;;4989874;28;20411;-82
2020/12/26 09:50:15;;;;;;;10.75;4.07;;;0.80;90.80;;;;;;4990698;28;20034;-82
2020/12/26 09:52:42;;;;;;;6.05;3.55;;;0.80;90.90;;;;;;4992332;28;20030;-81
2020/12/26 09:55:10;;;;;;;5.28;3.97;;;0.90;90.90;;;;;;4991938;28;20057;-83
2020/12/26 09:57:37;;;;;;;8.48;4.40;;;0.90;90.90;;;;;;4991024;28;20034;-84
2020/12/26 10:00:05;;;;;;;6.07;4.20;;;0.90;90.80;;;;;;4983684;28;20527;-84
2020/12/26 10:02:40;;;;;;;5.78;4.45;;;1.00;90.80;;;;;;4990578;28;20026;-84
2020/12/26 10:05:09;;;;;;;6.75;4.13;;;1.00;90.80;;;;;;4984282;28;20129;-83
2020/12/26 10:07:35;;;;;;;5.65;3.83;;;1.00;90.80;;;;;;4990809;28;20116;-84
2020/12/26 10:10:01;;;;;;;8.98;4.53;;;1.00;90.80;;;;;;4998320;28;20093;-88
2020/12/26 10:12:28;;;;;;;9.02;4.45;;;0.90;90.70;;;;;;4991823;28;20060;-86
2020/12/26 10:14:54;;;;;;;10.00;3.67;;;0.90;90.80;;;;;;4991603;28;20034;-86
2020/12/26 10:17:20;;;;;;;5.97;3.60;;;0.90;90.80;;;;;;4991741;28;20042;-86
2020/12/26 10:19:45;;;;;;;7.32;4.07;;;0.90;90.90;;;;;;4990983;28;20118;-84
2020/12/26 10:22:11;;;;;;;7.82;4.38;;;0.90;90.90;;;;;;4999722;28;20115;-82
2020/12/26 10:24:37;;;;;;;9.20;4.38;;;0.90;90.80;;;;;;5030631;28;20100;-84
2020/12/26 10:27:03;;;;;;;9.68;4.22;;;0.90;90.90;;;;;;5045669;28;20566;-84
2020/12/26 10:29:31;;;;;;;6.80;4.57;;;0.90;90.90;;;;;;5049667;28;20020;-83
2020/12/26 10:31:57;;;;;;;4.72;3.67;;;1.00;90.90;;;;;;5047159;28;20052;-89
2020/12/26 10:34:23;;;;;;;6.70;4.10;;;1.00;90.80;;;;;;5048901;28;20021;-83
2020/12/26 10:36:49;;;;;;;7.70;3.50;;;1.00;90.70;;;;;;5029340;28;20455;-90
2020/12/26 10:39:14;;;;;;;7.32;4.28;;;1.00;90.70;;;;;;5037159;28;20033;-87
2020/12/26 10:41:44;;;;;;;6.68;5.05;;;1.00;90.60;;;;;;5036502;28;20041;-85
2020/12/26 10:44:10;;;;;;;4.65;3.42;;;0.90;90.60;;;;;;5041353;28;20045;-84
2020/12/26 10:46:36;;;;;;;4.57;3.97;;;1.00;90.60;;;;;;5041866;28;20028;-86
2020/12/26 10:49:02;;;;;;;5.57;3.47;;;1.00;90.50;;;;;;5036806;28;20018;-85
2020/12/26 10:51:27;;;;;;;11.07;4.13;;;1.00;90.40;;;;;;5052594;28;20029;-84
2020/12/26 10:53:53;;;;;;;6.38;4.40;;;1.00;90.40;;;;;;5036193;28;20072;-83
2020/12/26 10:56:19;;;;;;;9.60;4.32;;;1.00;90.40;;;;;;5040995;28;20029;-86
2020/12/26 10:58:45;;;;;;;4.82;4.05;;;1.10;90.30;;;;;;5039939;28;20445;-83
2020/12/26 11:01:11;;;;;;;6.18;5.30;;;1.10;90.30;;;;;;5036746;28;20039;-84
2020/12/26 11:03:37;;;;;;;7.65;4.53;;;1.10;90.20;;;;;;5018363;28;20029;-83
2020/12/26 11:06:02;;;;;;;7.13;4.35;;;1.10;90.10;;;;;;5035515;28;20050;-84
2020/12/26 11:08:28;;;;;;;7.30;5.43;;;1.10;90.10;;;;;;5019732;28;20072;-84
2020/12/26 11:10:54;;;;;;;9.98;5.38;;;1.10;90.00;;;;;;5046609;28;20180;-84
2020/12/26 11:13:23;;;;;;;10.30;5.60;;;1.10;89.80;;;;;;5036799;28;20025;-87
2020/12/26 11:15:49;;;;;;;6.22;4.50;;;1.20;89.80;;;;;;5050711;28;20447;-83
2020/12/26 11:18:14;;;;;;;6.22;4.57;;;1.20;89.80;;;;;;5055137;28;20017;-82
2020/12/26 11:20:40;;;;;;;13.73;5.55;;;1.20;89.90;;;;;;5054922;28;20033;-83
2020/12/26 11:23:09;;;;;;;10.90;4.65;;;1.20;90.00;;;;;;5049493;28;20018;-81
2020/12/26 11:25:35;;;;;;;7.32;3.97;;;1.20;90.00;;;;;;5046479;28;20111;-83
2020/12/26 11:28:02;;;;;;;12.52;5.38;;;1.20;89.90;;;;;;5054629;28;20100;-84
2020/12/26 11:30:28;;;;;;;7.90;4.40;;;1.20;89.90;;;;;;5057705;28;20116;-85
2020/12/26 11:32:53;;;;;;;14.02;8.52;;;1.20;89.80;;;;;;5055015;28;20040;-84
2020/12/26 11:35:19;;;;;;;12.52;7.38;;;1.20;90.00;;;;;;5040221;28;20021;-83
2020/12/26 11:37:45;;;;;;;8.02;5.80;;;1.10;90.00;;;;;;5035283;28;20109;-87
2020/12/26 11:40:11;;;;;;;7.03;4.60;;;1.10;90.00;;;;;;5034146;28;20033;-86
2020/12/26 11:42:39;;;;;;;7.15;4.53;;;1.20;89.90;;;;;;5034607;28;20059;-87
2020/12/26 11:45:06;;;;;;;5.15;4.10;;;1.20;89.90;;;;;;5034793;28;20072;-86
2020/12/26 11:47:33;;;;;;;7.00;4.53;;;1.20;89.70;;;;;;5034384;28;20021;-85
2020/12/26 11:50:00;;;;;;;5.95;4.28;;;1.10;89.80;;;;;;5037062;28;20340;-90
2020/12/26 11:52:26;;;;;;;9.00;4.85;;;1.10;89.80;;;;;;5025064;28;20030;-83
2020/12/26 11:54:52;;;;;;;10.63;4.00;;;1.10;89.80;;;;;;5034718;28;20083;-84
2020/12/26 11:57:18;;;;;;;7.15;3.95;;;1.10;89.80;;;;;;5038849;28;20025;-84
2020/12/26 11:59:44;;;;;;;9.48;5.07;;;1.10;89.80;;;;;;5047399;28;20041;-85
2020/12/26 12:02:10;;;;;;;8.65;4.47;;;1.10;89.60;;;;;;5046315;28;20032;-82
2020/12/26 12:04:35;;;;;;;5.25;4.00;;;1.10;89.60;;;;;;5021660;28;20509;-83
2020/12/26 12:07:01;;;;;;;7.70;4.00;;;1.00;89.50;;;;;;5014986;28;20126;-85
2020/12/26 12:09:27;;;;;;;6.05;3.90;;;1.10;89.40;;;;;;5019760;28;20382;-84
2020/12/26 12:11:53;;;;;;;11.73;5.82;;;1.10;89.10;;;;;;5019370;28;20025;-83
2020/12/26 12:14:19;;;;;;;7.63;4.68;;;1.10;89.00;;;;;;5019329;28;20394;-81
2020/12/26 12:16:48;;;;;;;10.98;5.80;;;1.10;88.70;;;;;;5024749;28;20022;-83
2020/12/26 12:19:14;;;;;;;7.53;4.95;;;1.10;88.50;;;;;;5013717;28;20113;-82
2020/12/26 12:21:43;;;;;;;4.43;3.60;;;1.20;88.50;;;;;;5022169;28;20104;-83
2020/12/26 12:24:09;;;;;;;6.22;3.75;;;1.10;88.10;;;;;;5014669;28;20018;-83
2020/12/26 12:26:35;;;;;;;7.25;4.28;;;1.20;88.00;;;;;;5014828;28;20030;-83
2020/12/26 12:29:01;;;;;;;7.03;4.55;;;1.20;87.90;;;;;;5014358;28;20014;-82
2020/12/26 12:31:27;;;;;;;8.50;3.78;;;1.20;87.80;;;;;;5014176;28;20029;-83
2020/12/26 12:33:54;;;;;;;11.20;5.32;;;1.20;87.60;;;;;;5014469;28;20018;-83
2020/12/26 12:36:20;;;;;;;6.78;3.90;;;1.20;88.30;;;;;;5014900;28;20036;-82
2020/12/26 12:38:46;;;;;;;10.97;3.73;;;1.20;87.60;;;;;;5017049;28;20026;-83
2020/12/26 12:41:15;;;;;;;5.20;3.53;;;1.10;87.10;;;;;;5017805;28;20030;-87
2020/12/26 12:43:41;;;;;;;7.57;4.15;;;1.10;87.00;;;;;;5019746;28;20022;-82
2020/12/26 12:46:09;;;;;;;6.18;3.42;;;1.10;87.10;;;;;;5022258;28;20053;-82